createdAt,value
2022-10-11T00:02:12.717Z,95247.66
2022-10-11T00:04:39.716Z,95242.88
2022-10-11T00:07:06.712Z,95247.00
2022-10-11T00:09:33.639Z,95246.03
2022-10-11T00:12:00.578Z,95249.50
2022-10-11T00:14:27.956Z,95246.31
2022-10-11T00:16:55.241Z,95246.78
2022-10-11T00:19:22.499Z,95248.25
2022-10-11T00:21:49.463Z,95249.69
2022-10-11T00:24:16.971Z,95245.25
2022-10-11T00:26:47.012Z,95239.16
2022-10-11T00:29:14.564Z,95245.72
2022-10-11T00:31:41.499Z,95238.09
2022-10-11T00:34:10.254Z,95236.31
2022-10-11T00:36:37.242Z,95233.59
2022-10-11T00:39:04.743Z,95229.78
2022-10-11T00:41:31.821Z,95227.56
2022-10-11T00:44:28.541Z,95232.97
2022-10-11T00:47:01.372Z,95233.31
2022-10-11T00:49:36.056Z,95236.66
2022-10-11T00:52:20.771Z,95235.06
2022-10-11T00:54:48.727Z,95243.50
2022-10-11T00:57:22.631Z,95239.69
2022-10-11T00:59:54.065Z,95243.50
2022-10-11T01:02:23.294Z,95238.38
2022-10-11T01:05:01.175Z,95235.19
2022-10-11T01:07:39.306Z,95243.16
2022-10-11T01:10:06.521Z,95240.13
2022-10-11T01:12:34.054Z,95241.28
2022-10-11T01:15:36.343Z,95237.09
2022-10-11T01:18:14.683Z,95236.13
2022-10-11T01:21:17.423Z,95233.91
2022-10-11T01:24:30.393Z,95231.19
2022-10-11T01:27:34.676Z,95235.38
2022-10-11T01:30:25.265Z,95229.28
2022-10-11T01:33:28.868Z,95231.34
2022-10-11T01:36:27.982Z,95226.56
2022-10-11T01:39:04.607Z,95238.06
2022-10-11T01:41:39.677Z,95232.31
2022-10-11T01:44:09.146Z,95227.22
2022-10-11T01:46:37.172Z,95228.81
2022-10-11T01:49:05.608Z,95224.19
2022-10-11T01:51:45.209Z,95221.16
2022-10-11T01:55:14.335Z,95222.25
2022-10-11T01:58:13.327Z,95225.63
2022-10-11T02:01:21.015Z,95225.09
2022-10-11T02:03:58.246Z,95225.41
2022-10-11T02:06:40.286Z,95216.97
2022-10-11T02:09:34.222Z,95222.91
2022-10-11T02:12:07.449Z,95214.78
2022-10-11T02:14:44.690Z,95223.03
2022-10-11T02:17:18.847Z,95215.06
2022-10-11T02:19:49.591Z,95220.00
2022-10-11T02:22:26.668Z,95219.50
2022-10-11T02:24:57.491Z,95215.53
2022-10-11T02:27:28.149Z,95213.78
2022-10-11T02:29:59.790Z,95217.56
2022-10-11T02:32:30.366Z,95216.28
2022-10-11T02:35:00.493Z,95212.44
2022-10-11T02:37:44.999Z,95210.84
2022-10-11T02:40:41.432Z,95204.97
2022-10-11T02:43:17.724Z,95207.94
2022-10-11T02:45:53.731Z,95206.50
2022-10-11T02:48:21.184Z,95197.41
2022-10-11T02:50:48.287Z,95197.41
2022-10-11T02:53:15.254Z,95193.91
2022-10-11T02:55:42.190Z,95203.78
2022-10-11T02:58:09.171Z,95194.91
2022-10-11T03:00:36.077Z,95198.09
2022-10-11T03:03:03.066Z,95196.03
2022-10-11T03:05:30.038Z,95193.31
2022-10-11T03:07:56.941Z,95188.31
2022-10-11T03:10:23.865Z,95194.06
2022-10-11T03:12:50.784Z,95195.81
2022-10-11T03:15:17.783Z,95195.00
2022-10-11T03:17:51.260Z,95190.38
2022-10-11T03:20:18.230Z,95193.91
2022-10-11T03:22:45.331Z,95187.22
2022-10-11T03:25:12.347Z,95189.13
2022-10-11T03:27:39.348Z,95191.44
2022-10-11T03:30:09.020Z,95190.31
2022-10-11T03:32:36.043Z,95188.41
2022-10-11T03:35:03.551Z,95188.44
2022-10-11T03:37:30.504Z,95190.50
2022-10-11T03:39:57.554Z,95190.44
2022-10-11T03:42:24.454Z,95192.03
2022-10-11T03:44:52.124Z,95172.88
2022-10-11T03:47:19.126Z,95178.63
2022-10-11T03:49:46.061Z,95178.13
2022-10-11T03:52:13.055Z,95176.03
2022-10-11T03:54:39.953Z,95176.47
2022-10-11T03:57:06.916Z,95176.78
2022-10-11T03:59:33.854Z,95175.38
2022-10-11T04:02:00.880Z,95181.78
2022-10-11T04:04:27.945Z,95178.13
2022-10-11T04:06:54.958Z,95178.44
2022-10-11T04:09:21.891Z,95195.19
2022-10-11T04:11:48.790Z,95185.63
2022-10-11T04:14:15.762Z,95186.59
2022-10-11T04:16:42.776Z,95187.84
2022-10-11T04:19:09.625Z,95188.66
2022-10-11T04:21:36.607Z,95184.66
2022-10-11T04:24:03.759Z,95181.16
2022-10-11T04:26:30.866Z,95178.13
2022-10-11T04:28:58.112Z,95178.13
2022-10-11T04:31:25.271Z,95178.75
2022-10-11T04:33:52.173Z,95186.44
2022-10-11T04:36:19.141Z,95186.56
2022-10-11T04:38:46.082Z,95184.91
2022-10-11T04:41:14.603Z,95181.88
2022-10-11T04:43:41.573Z,95185.84
2022-10-11T04:46:09.777Z,95179.91
2022-10-11T04:48:37.323Z,95184.31
2022-10-11T04:51:04.532Z,95187.63
2022-10-11T04:53:31.673Z,95186.03
2022-10-11T04:56:01.516Z,95180.50
2022-10-11T04:58:29.999Z,95179.13
2022-10-11T05:00:57.088Z,95178.88
2022-10-11T05:03:25.045Z,95173.81
2022-10-11T05:05:53.013Z,95182.09
2022-10-11T05:08:23.438Z,95187.06
2022-10-11T05:11:02.047Z,95184.66
2022-10-11T05:13:29.856Z,95192.78
2022-10-11T05:15:57.907Z,95198.28
2022-10-11T05:18:24.850Z,95193.75
2022-10-11T05:21:28.200Z,95198.81
2022-10-11T05:23:56.684Z,95196.25
2022-10-11T05:26:25.830Z,95201.19
2022-10-11T05:28:53.011Z,95195.75
2022-10-11T05:31:20.392Z,95213.28
2022-10-11T05:33:47.606Z,95216.78
2022-10-11T05:36:14.841Z,95222.34
2022-10-11T05:38:41.994Z,95227.38
2022-10-11T05:41:09.440Z,95231.66
2022-10-11T05:43:36.688Z,95232.75
2022-10-11T05:46:04.037Z,95231.34
2022-10-11T05:48:31.206Z,95221.25
2022-10-11T05:51:07.020Z,95224.16
2022-10-11T05:53:34.111Z,95198.75
2022-10-11T05:56:01.155Z,95188.44
2022-10-11T05:58:28.515Z,95188.78
2022-10-11T06:00:57.137Z,95196.28
2022-10-11T06:03:24.272Z,95200.94
2022-10-11T06:05:56.541Z,95198.41
2022-10-11T06:08:24.063Z,95198.44
2022-10-11T06:10:51.120Z,95207.69
2022-10-11T06:13:18.618Z,95197.50
2022-10-11T06:15:45.642Z,95185.88
2022-10-11T06:18:12.584Z,95191.13
2022-10-11T06:20:39.616Z,95191.63
2022-10-11T06:23:06.573Z,95195.91
2022-10-11T06:25:33.604Z,95194.50
2022-10-11T06:28:00.832Z,95194.03
2022-10-11T06:30:27.858Z,95193.56
2022-10-11T06:32:54.915Z,95206.31
2022-10-11T06:35:21.865Z,95212.66
2022-10-11T06:37:48.823Z,95215.88
2022-10-11T06:40:16.033Z,95224.63
2022-10-11T06:42:42.945Z,95223.81
2022-10-11T06:45:10.507Z,95227.22
2022-10-11T06:47:37.468Z,95226.56
2022-10-11T06:50:06.455Z,95225.63
2022-10-11T06:52:33.417Z,95225.63
2022-10-11T06:55:00.406Z,95225.16
2022-10-11T06:57:29.385Z,95229.63
2022-10-11T06:59:56.636Z,95231.69
2022-10-11T07:02:23.688Z,95232.06
2022-10-11T07:04:50.766Z,95230.16
2022-10-11T07:07:17.911Z,95230.13
2022-10-11T07:09:44.866Z,95233.03
2022-10-11T07:12:12.041Z,95231.91
2022-10-11T07:14:39.046Z,95223.91
2022-10-11T07:17:06.102Z,95217.34
2022-10-11T07:19:33.783Z,95217.50
2022-10-11T07:22:00.823Z,95209.03
2022-10-11T07:24:28.155Z,95213.00
2022-10-11T07:26:55.034Z,95225.78
2022-10-11T07:29:22.238Z,95230.44
2022-10-11T07:31:49.320Z,95234.91
2022-10-11T07:34:16.350Z,95240.03
2022-10-11T07:36:43.271Z,95234.63
2022-10-11T07:39:10.609Z,95239.41
2022-10-11T07:41:44.583Z,95231.22
2022-10-11T07:44:12.875Z,95235.03
2022-10-11T07:46:39.939Z,95230.34
2022-10-11T07:49:06.968Z,95233.69
2022-10-11T07:51:34.005Z,95240.22
2022-10-11T07:54:06.141Z,95237.84
2022-10-11T07:56:34.309Z,95242.16
2022-10-11T07:59:03.789Z,95243.09
2022-10-11T08:01:31.332Z,95235.53
2022-10-11T08:03:59.321Z,95233.59
2022-10-11T08:06:30.692Z,95227.50
2022-10-11T08:08:58.834Z,95226.84
2022-10-11T08:11:31.282Z,95232.25
2022-10-11T08:13:59.321Z,95230.94
2022-10-11T08:16:26.394Z,95226.75
2022-10-11T08:18:55.566Z,95231.69
2022-10-11T08:21:22.490Z,95234.38
2022-10-11T08:23:49.463Z,95237.13
2022-10-11T08:26:16.487Z,95248.91
2022-10-11T08:28:43.577Z,95245.41
2022-10-11T08:31:13.761Z,95241.25
2022-10-11T08:33:41.105Z,95246.03
2022-10-11T08:36:09.816Z,95237.09
2022-10-11T08:38:37.401Z,95241.84
2022-10-11T08:41:23.773Z,95237.31
2022-10-11T08:44:27.965Z,95245.28
2022-10-11T08:47:04.557Z,95236.78
2022-10-11T08:49:33.655Z,95245.06
2022-10-11T08:52:04.812Z,95242.25
2022-10-11T08:55:27.065Z,95245.66
2022-10-11T08:57:56.465Z,95248.06
2022-10-11T09:00:24.778Z,95245.78
2022-10-11T09:03:40.640Z,95235.34
2022-10-11T09:07:01.350Z,95239.72
2022-10-11T09:09:53.069Z,95234.56
2022-10-11T09:13:03.054Z,95238.28
2022-10-11T09:15:47.092Z,95234.00
2022-10-11T09:18:31.996Z,95238.94
2022-10-11T09:21:43.671Z,95237.19
2022-10-11T09:24:53.633Z,95224.84
2022-10-11T09:27:33.179Z,95226.34
2022-10-11T09:30:16.048Z,95220.63
2022-10-11T09:32:47.420Z,95231.53
2022-10-11T09:35:20.053Z,95221.69
2022-10-11T09:38:19.115Z,95221.59
2022-10-11T09:41:06.091Z,95214.78
2022-10-11T09:43:33.148Z,95220.06
2022-10-11T09:46:00.103Z,95225.16
2022-10-11T09:48:40.631Z,95220.19
2022-10-11T09:51:15.888Z,95220.53
2022-10-11T09:54:10.972Z,95215.25
2022-10-11T09:56:46.155Z,95209.53
2022-10-11T09:59:33.784Z,95206.97
2022-10-11T10:02:20.859Z,95208.69
2022-10-11T10:05:15.968Z,95212.09
2022-10-11T10:08:05.203Z,95207.25
2022-10-11T10:10:43.797Z,95204.84
2022-10-11T10:13:27.001Z,95211.13
2022-10-11T10:15:58.049Z,95197.34
2022-10-11T10:18:34.594Z,95199.03
2022-10-11T10:21:02.871Z,95199.16
2022-10-11T10:23:35.577Z,95200.19
2022-10-11T10:26:23.478Z,95195.84
2022-10-11T10:29:05.104Z,95191.53
2022-10-11T10:32:13.038Z,95181.25
2022-10-11T10:34:40.105Z,95184.19
2022-10-11T10:37:30.277Z,95174.56
2022-10-11T10:40:03.866Z,95182.19
2022-10-11T10:42:31.049Z,95178.97
2022-10-11T10:44:59.184Z,95173.69
2022-10-11T10:48:07.337Z,95177.09
2022-10-11T10:50:56.516Z,95168.75
2022-10-11T10:53:49.635Z,95165.09
2022-10-11T10:56:28.086Z,95163.22
2022-10-11T10:59:13.592Z,95160.19
2022-10-11T11:02:21.431Z,95159.75
2022-10-11T11:05:30.242Z,95156.81
2022-10-11T11:08:16.010Z,95156.28
2022-10-11T11:10:58.558Z,95157.00
2022-10-11T11:13:50.674Z,95160.41
2022-10-11T11:16:35.361Z,95164.06
2022-10-11T11:19:59.717Z,95151.59
2022-10-11T11:22:39.891Z,95141.66
2022-10-11T11:25:50.623Z,95143.59
2022-10-11T11:28:57.217Z,95149.19
2022-10-11T11:31:49.414Z,95149.47
2022-10-11T11:34:30.389Z,95143.34
2022-10-11T11:37:28.620Z,95141.59
2022-10-11T11:43:21.546Z,95124.88
2022-10-11T11:45:59.521Z,95136.09
2022-10-11T11:48:27.311Z,95128.75
2022-10-11T11:51:03.953Z,95121.69
2022-10-11T11:54:24.938Z,95125.09
2022-10-11T11:57:19.848Z,95121.25
2022-10-11T12:00:06.652Z,95126.50
2022-10-11T12:03:10.078Z,95117.78
2022-10-11T12:05:37.411Z,95117.78
2022-10-11T12:08:08.521Z,95118.22
2022-10-11T12:11:00.380Z,95110.88
2022-10-11T12:13:49.057Z,95112.44
2022-10-11T12:16:21.330Z,95114.81
2022-10-11T12:19:20.363Z,95111.00
2022-10-11T12:21:48.187Z,95102.53
2022-10-11T12:24:24.806Z,95108.22
2022-10-11T12:27:30.322Z,95111.03
2022-10-11T12:29:59.814Z,95103.28
2022-10-11T12:33:09.683Z,95108.03
2022-10-11T12:35:48.203Z,95107.78
2022-10-11T12:38:28.990Z,95109.84
2022-10-11T12:41:30.283Z,95099.88
2022-10-11T12:44:26.475Z,95099.31
2022-10-11T12:47:22.939Z,95095.56
2022-10-11T12:50:01.584Z,95101.56
2022-10-11T12:52:55.792Z,95088.88
2022-10-11T12:55:37.138Z,95092.34
2022-10-11T12:58:46.403Z,95089.81
2022-10-11T13:01:26.564Z,95095.94
2022-10-11T13:04:25.569Z,95092.88
2022-10-11T13:07:06.544Z,95093.38
2022-10-11T13:09:48.103Z,95088.25
2022-10-11T13:12:28.332Z,95091.44
2022-10-11T13:15:11.269Z,95092.94
2022-10-11T13:17:58.242Z,95091.25
2022-10-11T13:20:28.645Z,95093.53
2022-10-11T13:22:57.253Z,95088.00
2022-10-11T13:25:30.779Z,95091.75
2022-10-11T13:28:01.938Z,95084.69
2022-10-11T13:30:38.655Z,95085.41
2022-10-11T13:33:11.535Z,95087.19
2022-10-11T13:35:42.160Z,95090.41
2022-10-11T13:38:18.699Z,95088.78
2022-10-11T13:40:53.117Z,95088.47
2022-10-11T13:43:27.169Z,95089.16
2022-10-11T13:45:55.943Z,95088.06
2022-10-11T13:48:24.479Z,95090.13
2022-10-11T13:51:14.087Z,95093.78
2022-10-11T13:53:58.712Z,95096.75
2022-10-11T13:56:36.786Z,95085.63
2022-10-11T13:59:05.331Z,95089.25
2022-10-11T14:01:40.716Z,95085.63
2022-10-11T14:04:12.109Z,95093.13
2022-10-11T14:06:48.691Z,95091.31
2022-10-11T14:09:33.451Z,95086.00
2022-10-11T14:12:37.493Z,95091.34
2022-10-11T14:15:07.801Z,95092.34
2022-10-11T14:17:45.650Z,95087.81
2022-10-11T14:20:34.288Z,95080.00
2022-10-11T14:23:01.248Z,95083.13
2022-10-11T14:25:28.504Z,95084.06
2022-10-11T14:27:55.670Z,95084.75
2022-10-11T14:30:26.471Z,95083.84
2022-10-11T14:32:56.678Z,95084.53
2022-10-11T14:35:32.028Z,95081.44
2022-10-11T14:37:59.428Z,95078.34
2022-10-11T14:40:29.321Z,95083.69
2022-10-11T14:42:57.050Z,95075.84
2022-10-11T14:45:24.418Z,95079.03
2022-10-11T14:47:51.987Z,95081.31
2022-10-11T14:50:42.915Z,95078.81
2022-10-11T14:53:11.711Z,95083.00
2022-10-11T14:55:40.761Z,95082.09
2022-10-11T14:58:09.081Z,95085.16
2022-10-11T15:00:36.907Z,95093.97
2022-10-11T15:03:05.340Z,95090.81
2022-10-11T15:05:34.126Z,95085.69
2022-10-11T15:08:03.070Z,95096.94
2022-10-11T15:10:41.212Z,95088.97
2022-10-11T15:13:08.934Z,95095.91
2022-10-11T15:15:37.711Z,95093.50
2022-10-11T15:18:06.773Z,95089.53
2022-10-11T15:20:40.307Z,95094.03
2022-10-11T15:23:09.916Z,95095.50
2022-10-11T15:25:39.265Z,95100.03
2022-10-11T15:28:07.359Z,95091.94
2022-10-11T15:30:41.062Z,95094.66
2022-10-11T15:33:09.205Z,95088.09
2022-10-11T15:35:36.215Z,95086.50
2022-10-11T15:38:03.407Z,95090.19
2022-10-11T15:40:39.133Z,95083.06
2022-10-11T15:43:06.125Z,95096.06
2022-10-11T15:45:33.364Z,95098.34
2022-10-11T15:48:00.375Z,95101.84
2022-10-11T15:50:36.997Z,95099.94
2022-10-11T15:53:25.892Z,95101.50
2022-10-11T15:55:54.859Z,95104.16
2022-10-11T15:58:24.694Z,95094.63
2022-10-11T16:00:54.324Z,95102.31
2022-10-11T16:03:24.198Z,95105.38
2022-10-11T16:05:52.005Z,95110.38
2022-10-11T16:08:19.250Z,95115.97
2022-10-11T16:10:46.589Z,95113.13
2022-10-11T16:13:13.531Z,95114.47
2022-10-11T16:15:42.312Z,95116.25
2022-10-11T16:18:12.469Z,95119.66
2022-10-11T16:20:44.547Z,95124.78
2022-10-11T16:23:12.380Z,95128.50
2022-10-11T16:25:39.575Z,95122.59
2022-10-11T16:28:08.167Z,95131.75
2022-10-11T16:30:39.100Z,95128.56
2022-10-11T16:33:06.373Z,95137.84
2022-10-11T16:35:33.370Z,95127.63
2022-10-11T16:38:01.239Z,95135.31
2022-10-11T16:40:30.064Z,95135.97
2022-10-11T16:42:57.012Z,95129.69
2022-10-11T16:45:24.257Z,95139.16
2022-10-11T16:47:51.233Z,95132.13
2022-10-11T16:50:18.384Z,95133.91
2022-10-11T16:52:45.308Z,95144.31
2022-10-11T16:55:12.256Z,95137.56
2022-10-11T16:57:39.342Z,95142.06
2022-10-11T17:00:08.909Z,95133.44
2022-10-11T17:02:36.297Z,95142.72
2022-10-11T17:05:03.713Z,95141.13
2022-10-11T17:07:31.155Z,95148.78
2022-10-11T17:09:58.408Z,95143.19
2022-10-11T17:12:25.458Z,95143.50
2022-10-11T17:14:52.553Z,95150.25
2022-10-11T17:17:19.631Z,95143.19
2022-10-11T17:19:47.775Z,95147.81
2022-10-11T17:22:17.958Z,95141.44
2022-10-11T17:24:46.101Z,95144.16
2022-10-11T17:27:13.137Z,95144.63
2022-10-11T17:29:40.335Z,95142.38
2022-10-11T17:32:07.344Z,95149.44
2022-10-11T17:34:34.608Z,95152.63
2022-10-11T17:37:01.646Z,95146.72
2022-10-11T17:39:28.836Z,95147.34
2022-10-11T17:41:55.739Z,95152.00
2022-10-11T17:44:22.648Z,95149.13
2022-10-11T17:46:50.365Z,95149.78
2022-10-11T17:49:17.556Z,95155.56
2022-10-11T17:51:44.612Z,95156.88
2022-10-11T17:54:13.197Z,95162.16
2022-10-11T17:56:41.413Z,95161.38
2022-10-11T17:59:15.985Z,95159.31
2022-10-11T18:01:43.205Z,95163.47
2022-10-11T18:04:16.933Z,95161.09
2022-10-11T18:06:46.666Z,95166.34
2022-10-11T18:09:16.477Z,95166.84
2022-10-11T18:11:44.091Z,95157.78
2022-10-11T18:14:11.046Z,95164.53
2022-10-11T18:16:38.665Z,95173.13
2022-10-11T18:19:08.396Z,95162.00
2022-10-11T18:21:37.740Z,95165.94
2022-10-11T18:24:08.287Z,95159.91
2022-10-11T18:26:35.226Z,95163.09
2022-10-11T18:29:02.190Z,95165.94
2022-10-11T18:31:31.363Z,95166.97
2022-10-11T18:33:58.325Z,95181.78
2022-10-11T18:36:28.211Z,95166.31
2022-10-11T18:38:59.165Z,95167.44
2022-10-11T18:41:30.792Z,95165.34
2022-10-11T18:44:03.278Z,95165.34
2022-10-11T18:46:31.221Z,95163.91
2022-10-11T18:49:01.419Z,95164.06
2022-10-11T18:51:31.601Z,95166.78
2022-10-11T18:53:59.059Z,95172.53
2022-10-11T18:56:28.366Z,95169.97
2022-10-11T18:58:57.384Z,95167.56
2022-10-11T19:01:30.395Z,95165.00
2022-10-11T19:03:59.478Z,95169.63
2022-10-11T19:06:33.116Z,95170.41
2022-10-11T19:09:03.820Z,95163.88
2022-10-11T19:11:31.103Z,95168.00
2022-10-11T19:14:00.411Z,95174.72
2022-10-11T19:16:29.919Z,95178.81
2022-10-11T19:18:57.409Z,95182.84
2022-10-11T19:21:24.529Z,95179.63
2022-10-11T19:23:52.036Z,95175.81
2022-10-11T19:26:29.098Z,95186.16
2022-10-11T19:29:01.006Z,95189.50
2022-10-11T19:31:28.974Z,95181.38
2022-10-11T19:33:57.969Z,95180.72
2022-10-11T19:36:25.822Z,95187.41
2022-10-11T19:38:56.863Z,95181.03
2022-10-11T19:41:25.042Z,95179.94
2022-10-11T19:43:52.555Z,95188.69
2022-10-11T19:46:44.414Z,95187.47
2022-10-11T19:49:09.494Z,95181.56
2022-10-11T19:51:37.556Z,95187.00
2022-10-11T19:54:07.238Z,95190.19
2022-10-11T19:56:34.525Z,95187.00
2022-10-11T19:59:02.430Z,95194.00
2022-10-11T20:01:31.407Z,95193.38
2022-10-11T20:04:00.725Z,95197.34
2022-10-11T20:06:28.700Z,95201.97
2022-10-11T20:09:23.986Z,95191.94
2022-10-11T20:11:43.305Z,95186.66
2022-10-11T20:14:10.257Z,95184.75
2022-10-11T20:16:37.232Z,95194.31
2022-10-11T20:19:04.245Z,95198.16
2022-10-11T20:21:31.274Z,95191.63
2022-10-11T20:24:00.806Z,95196.06
2022-10-11T20:26:28.995Z,95198.31
2022-10-11T20:28:57.497Z,95192.09
2022-10-11T20:31:34.399Z,95195.88
2022-10-11T20:34:05.030Z,95198.09
2022-10-11T20:36:32.570Z,95194.59
2022-10-11T20:39:00.335Z,95200.34
2022-10-11T20:41:39.986Z,95196.53
2022-10-11T20:44:07.576Z,95200.19
2022-10-11T20:46:37.314Z,95197.78
2022-10-11T20:49:07.068Z,95201.59
2022-10-11T20:51:37.623Z,95205.44
2022-10-11T20:54:04.912Z,95198.25
2022-10-11T20:56:32.606Z,95201.88
2022-10-11T20:58:59.880Z,95205.38
2022-10-11T21:01:30.247Z,95202.84
2022-10-11T21:03:58.880Z,95206.19
2022-10-11T21:06:26.695Z,95199.78
2022-10-11T21:08:56.025Z,95204.91
2022-10-11T21:11:30.688Z,95202.66
2022-10-11T21:13:59.748Z,95199.31
2022-10-11T21:16:27.773Z,95200.94
2022-10-11T21:18:56.718Z,95203.00
2022-10-11T21:21:24.282Z,95196.31
2022-10-11T21:23:55.905Z,95196.13
2022-10-11T21:26:23.059Z,95195.19
2022-10-11T21:28:50.873Z,95202.19
2022-10-11T21:31:19.887Z,95189.75
2022-10-11T21:33:47.149Z,95195.19
2022-10-11T21:36:20.019Z,95195.19
2022-10-11T21:38:48.172Z,95185.94
2022-10-11T21:41:18.266Z,95189.13
2022-10-11T21:43:45.889Z,95191.34
2022-10-11T21:46:16.096Z,95195.66
2022-10-11T21:48:43.369Z,95189.28
2022-10-11T21:51:21.563Z,95195.81
2022-10-11T21:53:48.591Z,95189.72
2022-10-11T21:56:16.086Z,95201.66
2022-10-11T21:58:43.571Z,95194.16
2022-10-11T22:01:11.722Z,95188.44
2022-10-11T22:03:38.719Z,95180.50
2022-10-11T22:06:05.962Z,95183.69
2022-10-11T22:08:33.235Z,95180.19
2022-10-11T22:11:01.334Z,95177.97
2022-10-11T22:13:30.440Z,95181.28
2022-10-11T22:15:57.507Z,95183.50
2022-10-11T22:18:25.001Z,95179.50
2022-10-11T22:20:52.021Z,95180.13
2022-10-11T22:23:19.414Z,95181.25
2022-10-11T22:25:46.707Z,95178.84
2022-10-11T22:28:13.704Z,95178.69
2022-10-11T22:30:40.686Z,95184.41
2022-10-11T22:33:07.667Z,95192.53
2022-10-11T22:35:38.156Z,95180.28
2022-10-11T22:38:06.431Z,95183.78
2022-10-11T22:40:33.418Z,95188.09
2022-10-11T22:43:00.318Z,95193.50
2022-10-11T22:45:27.274Z,95198.94
2022-10-11T22:47:58.107Z,95200.53
2022-10-11T22:50:26.140Z,95192.53
2022-10-11T22:52:53.182Z,95197.31
2022-10-11T22:55:20.415Z,95199.09
2022-10-11T22:57:47.405Z,95196.06
2022-10-11T23:00:14.979Z,95200.06
2022-10-11T23:02:41.882Z,95205.16
2022-10-11T23:05:09.067Z,95204.38
2022-10-11T23:07:36.431Z,95201.19
2022-10-11T23:10:04.150Z,95202.13
2022-10-11T23:12:31.150Z,95202.44
2022-10-11T23:14:58.098Z,95202.75
2022-10-11T23:17:25.058Z,95195.72
2022-10-11T23:19:52.845Z,95195.72
2022-10-11T23:22:19.747Z,95204.34
2022-10-11T23:24:46.877Z,95197.81
2022-10-11T23:27:13.796Z,95200.53
2022-10-11T23:29:41.311Z,95205.31
2022-10-11T23:32:09.669Z,95199.91
2022-10-11T23:34:36.709Z,95202.59
2022-10-11T23:37:04.580Z,95203.41
2022-10-11T23:39:31.810Z,95199.09
2022-10-11T23:41:58.841Z,95191.75
2022-10-11T23:44:25.719Z,95191.75
2022-10-11T23:46:52.658Z,95203.22
2022-10-11T23:49:19.633Z,95205.63
2022-10-11T23:51:46.607Z,95195.59
2022-10-11T23:54:13.646Z,95196.06
2022-10-11T23:56:40.541Z,95201.97
2022-10-11T23:59:07.484Z,95194.97
